• Join FlightAware (Why Join?)
  • Login
  • US Flag 
01:27PM EDT


 

Airport Tracker/Info


-or-


 

Live Flight TrackerFlight Track Log ✈ SWA1287 ✈ 28-Apr-2013 ✈ KLAS - KOKC

Flight Track Log - Related Links

Times and Time Zones

All times are in EDT time to prevent confusion due to time zone crossing. See the SWA1287 flight status page for this flight to view local times or setup timezone preferences in your user account.

Time Position Orientation Groundspeed Altitude Reporting Facility
EDT Latitude Longitude Course Direction KTS MPH feet Rate Location/Type
02:11PM 36.0767 -115.1814 269° West 188 216 3,200  Level Los Angeles Center
02:12PM 36.0758 -115.2267 269° West 208 239 4,300 1,920 Climbing Los Angeles Center
02:13PM 36.0219 -115.2764 217° Southwest 270 311 6,400 2,100 Climbing Los Angeles Center
02:14PM 35.9456 -115.2933 190° South 287 330 8,600 2,040 Climbing Los Angeles Center
02:15PM 35.8728 -115.2564 158° South 307 353 10,600 2,040 Climbing Los Angeles Center
02:16PM 35.8378 -115.1453 111° Southeast 330 380 13,100 2,220 Climbing Los Angeles Center
02:17PM 35.8236 -115.0311 99° East 340 391 15,500 1,860 Climbing Los Angeles Center
02:18PM 35.8367 -114.9075 83° East 362 417 17,000 1,980 Climbing Los Angeles Center
02:19PM 35.8508 -114.7533 83° East 375 432 19,600 1,980 Climbing Los Angeles Center
02:20PM 35.8622 -114.6200 84° East 386 444 21,200 1,500 Climbing Los Angeles Center
02:21PM 35.8744 -114.4833 84° East 397 457 22,800 1,500 Climbing Los Angeles Center
02:22PM 35.8861 -114.3428 84° East 407 468 24,300 1,380 Climbing Los Angeles Center
02:23PM 35.8983 -114.1986 84° East 418 481 25,700 1,380 Climbing Los Angeles Center
02:24PM 35.9133 -114.0231 84° East 427 491 27,200 1,260 Climbing Los Angeles Center
02:25PM 35.9214 -113.8736 86° East 433 498 28,400 1,440 Climbing Los Angeles Center
02:26PM 35.8883 -113.7292 106° East 436 502 30,200 1,320 Climbing Los Angeles Center
02:27PM 35.8578 -113.5825 104° East 426 490 31,400 1,140 Climbing Los Angeles Center
02:28PM 35.8236 -113.4142 104° East 423 487 32,800 780 Climbing Los Angeles Center
02:29PM 35.7950 -113.2756 104° East 420 483 33,100 300 Climbing Los Angeles Center
02:30PM 35.7656 -113.1344 104° East 423 487 33,500 720 Climbing Los Angeles Center
02:31PM 35.7353 -112.9958 105° East 421 484 34,600 720 Climbing Los Angeles Center
02:33PM 35.7067 -112.8569 104° East 418 481 35,100 240 Climbing Los Angeles Center
02:34PM 35.6717 -112.6908 104° East 420 483 35,100  Level Los Angeles Center
02:35PM 35.6403 -112.5481 105° East 424 488 35,100  Level Los Angeles Center
02:36PM 35.6100 -112.4072 105° East 426 490 35,100  Level Los Angeles Center
02:37PM 35.5689 -112.2717 110° East 426 490 35,100  Level Albuquerque Center
02:37PM 35.5689 -112.2717 110° East 424 488 35,100  Level Los Angeles Center
02:38PM 35.5203 -112.1375 114° Southeast 431 496 35,100  Level Albuquerque Center
02:39PM 35.4753 -112.0019 112° Southeast 430 495 35,100  Level Albuquerque Center
02:40PM 35.4303 -111.8686 112° Southeast 427 491 35,100  Level Albuquerque Center
02:41PM 35.3850 -111.7347 112° Southeast 427 491 35,100  Level Albuquerque Center
02:42PM 35.3403 -111.6017 112° Southeast 426 490 35,100  Level Albuquerque Center
02:43PM 35.2839 -111.4411 113° Southeast 427 491 35,100  Level Albuquerque Center
02:44PM 35.2386 -111.3075 113° Southeast 427 491 35,100  Level Albuquerque Center
02:45PM 35.1928 -111.1736 113° Southeast 425 489 35,100  Level Albuquerque Center
02:46PM 35.1519 -111.0294 109° East 429 494 35,100  Level Albuquerque Center
02:47PM 35.1478 -110.8694 92° East 421 484 35,100  Level Albuquerque Center
02:48PM 35.1447 -110.7322 92° East 422 486 35,100  Level Albuquerque Center
02:49PM 35.1444 -110.5739 90° East 420 483 35,100  Level Albuquerque Center
02:50PM 35.1428 -110.4364 91° East 421 484 35,100  Level Albuquerque Center
02:51PM 35.1411 -110.2997 91° East 421 484 35,100  Level Albuquerque Center
02:52PM 35.1400 -110.1422 90° East 419 482 35,100  Level Albuquerque Center
02:53PM 35.1386 -110.0053 91° East 420 483 35,100  Level Albuquerque Center
02:54PM 35.1364 -109.8461 91° East 421 484 35,100  Level Albuquerque Center
02:55PM 35.1322 -109.7058 92° East 427 491 35,100  Level Albuquerque Center
02:56PM 35.1297 -109.5475 91° East 424 488 35,100  Level Albuquerque Center
02:57PM 35.1269 -109.4097 91° East 423 487 35,100  Level Albuquerque Center
02:58PM 35.1242 -109.2511 91° East 421 484 35,100  Level Albuquerque Center
02:59PM 35.1203 -109.1139 92° East 422 486 35,100  Level Albuquerque Center
03:00PM 35.1167 -108.9550 92° East 421 484 35,100  Level Albuquerque Center
03:01PM 35.1136 -108.8175 92° East 423 487 35,100  Level Albuquerque Center
03:02PM 35.1100 -108.6581 92° East 423 487 35,100  Level Albuquerque Center
03:03PM 35.1061 -108.5211 92° East 422 486 35,100  Level Albuquerque Center
03:04PM 35.1011 -108.3614 92° East 423 487 35,100  Level Albuquerque Center
03:06PM 35.0964 -108.2250 92° East 422 486 35,100  Level Albuquerque Center
03:07PM 35.0936 -108.0650 91° East 422 486 35,100  Level Albuquerque Center
03:08PM 35.0881 -107.9281 93° East 423 487 35,100  Level Albuquerque Center
03:09PM 35.0822 -107.7897 93° East 421 484 35,100  Level Albuquerque Center
03:10PM 35.0775 -107.6475 92° East 421 484 35,100  Level Albuquerque Center
03:11PM 35.0708 -107.4758 93° East 422 486 35,100 -60 Level Albuquerque Center
03:12PM 35.0647 -107.3342 93° East 420 483 35,000  Descending Albuquerque Center
03:13PM 35.0592 -107.1794 92° East 420 483 35,100  Climbing Albuquerque Center
03:14PM 35.0569 -107.0433 91° East 419 482 35,100  Level Albuquerque Center
03:15PM 35.0692 -106.8869 85° East 413 475 35,100  Level Albuquerque Center
03:16PM 35.0775 -106.7547 86° East 410 472 35,100  Level Albuquerque Center
03:17PM 35.0864 -106.6200 85° East 413 475 35,100  Level Albuquerque Center
03:18PM 35.0969 -106.4700 85° East 429 494 35,100  Level Albuquerque Center
03:19PM 35.1056 -106.3303 86° East 420 483 35,100  Level Albuquerque Center
03:20PM 35.1169 -106.1594 85° East 414 476 35,100  Level Albuquerque Center
03:21PM 35.1256 -106.0169 86° East 418 481 35,100  Level Albuquerque Center
03:22PM 35.1347 -105.8733 85° East 420 483 35,100  Level Albuquerque Center
03:23PM 35.1436 -105.7300 86° East 421 484 35,100 -60 Level Albuquerque Center
03:24PM 35.1519 -105.5872 86° East 419 482 35,000  Descending Albuquerque Center
03:25PM 35.1606 -105.4439 86° East 420 483 35,100  Climbing Albuquerque Center
03:26PM 35.1686 -105.3011 86° East 419 482 35,100  Level Albuquerque Center
03:27PM 35.1775 -105.1333 86° East 421 484 35,100  Level Albuquerque Center
03:28PM 35.1864 -104.9903 86° East 420 483 35,100  Level Albuquerque Center
03:29PM 35.1931 -104.8481 87° East 416 479 35,100  Level Albuquerque Center
03:30PM 35.2003 -104.7050 86° East 418 481 35,100  Level Albuquerque Center
03:31PM 35.2089 -104.5578 86° East 419 482 35,100  Level Albuquerque Center
03:32PM 35.2172 -104.4153 86° East 421 484 35,100  Level Albuquerque Center
03:33PM 35.2233 -104.2728 87° East 421 484 35,100  Level Albuquerque Center
03:34PM 35.2294 -104.1306 87° East 421 484 35,100  Level Albuquerque Center
03:35PM 35.2378 -103.9600 87° East 421 484 35,100  Level Albuquerque Center
03:37PM 35.2436 -103.8311 87° East 419 482 35,100  Level Albuquerque Center
03:38PM 35.2497 -103.6872 87° East 421 484 35,100  Level Albuquerque Center
03:39PM 35.2569 -103.5189 87° East 420 483 35,100  Level Albuquerque Center
03:40PM 35.2628 -103.3756 87° East 419 482 35,100  Level Albuquerque Center
03:41PM 35.2681 -103.2314 87° East 420 483 35,100  Level Albuquerque Center
03:42PM 35.2742 -103.0869 87° East 421 484 35,100  Level Albuquerque Center
03:43PM 35.2789 -102.9339 88° East 420 483 35,100  Level Albuquerque Center
03:44PM 35.2842 -102.7897 87° East 423 487 35,100  Level Albuquerque Center
03:45PM 35.2892 -102.6531 87° East 423 487 35,100 -60 Level Albuquerque Center
03:46PM 35.2925 -102.5025 88° East 423 487 35,000  Descending Albuquerque Center
03:47PM 35.2972 -102.3592 88° East 423 487 35,100  Climbing Albuquerque Center
03:48PM 35.3036 -102.1878 87° East 421 484 35,100  Level Albuquerque Center
03:49PM 35.3083 -102.0442 88° East 423 487 35,100  Level Albuquerque Center
03:50PM 35.3139 -101.9044 87° East 423 487 35,100  Level Albuquerque Center
03:51PM 35.3214 -101.7606 86° East 421 484 35,100 -60 Level Albuquerque Center
03:52PM 35.3233 -101.6222 89° East 422 486 35,000  Descending Albuquerque Center
03:53PM 35.3286 -101.4508 88° East 420 483 35,100  Climbing Albuquerque Center
03:54PM 35.3289 -101.3169 90° East 421 484 35,100  Level Albuquerque Center
03:55PM 35.3325 -101.1733 88° East 423 487 35,100  Level Albuquerque Center
03:56PM 35.3358 -101.0303 88° East 420 483 35,100  Level Albuquerque Center
03:58PM 35.3386 -100.7522 89° East 430 495 35,100 -60 Level Fort Worth Center
03:59PM 35.3403 -100.6100 89° East 430 495 35,000 -120 Descending Fort Worth Center
03:59PM 35.3453 -100.5883 74° East 423 487 35,000  Level Albuquerque Center
04:00PM 35.3461 -100.4169 90° East 421 484 35,000  Level Albuquerque Center
04:01PM 35.3494 -100.2747 88° East 419 482 35,100  Climbing Albuquerque Center
04:02PM 35.3511 -100.1317 89° East 420 483 35,000 -60 Descending Albuquerque Center
04:03PM 35.3525 -99.9894 89° East 419 482 35,000  Level Albuquerque Center
04:04PM 35.3550 -99.8464 89° East 421 484 35,100  Climbing Albuquerque Center
04:05PM 35.3556 -99.7028 90° East 423 487 35,000 -960 Descending Albuquerque Center
04:06PM 35.3569 -99.5339 89° East 416 479 33,200 -2,160 Descending Albuquerque Center
04:08PM 35.3592 -99.3936 89° East 414 476 30,600 -2,340 Descending Albuquerque Center
04:08PM 35.3581 -99.3378 91° East 415 478 29,700 -2,100 Descending Fort Worth Center
04:09PM 35.3578 -99.2031 90° East 402 463 27,500 -2,160 Descending Fort Worth Center
04:10PM 35.3597 -99.0758 89° East 386 444 25,400 -2,100 Descending Fort Worth Center
04:11PM 35.3614 -98.9486 89° East 376 433 23,300 -2,100 Descending Fort Worth Center
04:12PM 35.3606 -98.8264 90° East 365 420 21,300 -2,040 Descending Fort Worth Center
04:13PM 35.3619 -98.7067 89° East 360 414 19,300 -2,040 Descending Fort Worth Center
04:14PM 35.3611 -98.5869 90° East 350 403 17,300 -2,040 Descending Fort Worth Center
04:15PM 35.3619 -98.4750 89° East 344 396 15,300 -2,100 Descending Fort Worth Center
04:15PM 35.3583 -98.4292 96° East 338 389 14,500 -2,220 Descending Fort Worth Center
04:16PM 35.3586 -98.3681 90° East 334 384 13,400 -1,980 Descending Fort Worth Center
04:17PM 35.3594 -98.2586 89° East 325 374 11,500 -1,680 Descending Fort Worth Center
04:18PM 35.3686 -98.1492 84° East 316 364 10,100 -1,440 Descending Fort Worth Center
04:19PM 35.3900 -98.0503 75° East 302 348 8,700 -1,680 Descending Fort Worth Center
04:20PM 35.4092 -97.9458 77° East 294 338 6,700 -1,920 Descending Fort Worth Center
04:21PM 35.4306 -97.8467 75° East 295 339 4,900 -1,200 Descending Fort Worth Center
04:22PM 35.4494 -97.7550 76° East 290 334 4,200 -660 Descending Fort Worth Center
04:23PM 35.4581 -97.6786 82° East 168 193 3,600 -1,080 Descending Fort Worth Center
04:24PM 35.4269 -97.6453 139° Southeast 138 159 2,100 -1,080 Descending Fort Worth Center
04:25PM 35.4061 -97.6019 121° Southeast 152 175 1,400 4,320 Descending Fort Worth Center
04:26PM 35.3853 -97.5561 119° Southeast 152 175 11,000 4,800 Climbing Fort Worth Center
04:27PM 35.3644 -97.5128 121° Southeast 152 175 11,000  Level Fort Worth Center
04:28PM 35.3436 -97.4669 119° Southeast 152 175 11,000  Level Fort Worth Center
04:29PM 35.3269 -97.4314 120° Southeast 152 175 11,000  Level Fort Worth Center